sensor_id;sensor_type;location;lat;lon;timestamp;temperature;humidity
42479;DHT22;28110;47.080;9.476;2023-06-04T00:01:21;16.70;99.90
42479;DHT22;28110;47.080;9.476;2023-06-04T00:03:47;16.80;99.90
42479;DHT22;28110;47.080;9.476;2023-06-04T00:06:12;16.80;99.90
42479;DHT22;28110;47.080;9.476;2023-06-04T00:08:38;16.80;99.90
42479;DHT22;28110;47.080;9.476;2023-06-04T00:11:04;16.80;99.90
42479;DHT22;28110;47.080;9.476;2023-06-04T00:13:29;16.90;99.90
42479;DHT22;28110;47.080;9.476;2023-06-04T00:15:55;16.90;99.90
42479;DHT22;28110;47.080;9.476;2023-06-04T00:18:20;16.90;99.90
42479;DHT22;28110;47.080;9.476;2023-06-04T00:20:46;17.00;99.90
42479;DHT22;28110;47.080;9.476;2023-06-04T00:23:11;16.90;99.90
42479;DHT22;28110;47.080;9.476;2023-06-04T00:25:37;16.90;99.90
42479;DHT22;28110;47.080;9.476;2023-06-04T00:28:03;16.90;99.90
42479;DHT22;28110;47.080;9.476;2023-06-04T00:30:28;16.90;99.90
42479;DHT22;28110;47.080;9.476;2023-06-04T00:32:54;16.90;99.90
42479;DHT22;28110;47.080;9.476;2023-06-04T00:35:19;17.00;99.90
42479;DHT22;28110;47.080;9.476;2023-06-04T00:37:46;16.90;99.90
42479;DHT22;28110;47.080;9.476;2023-06-04T00:40:12;17.00;99.90
42479;DHT22;28110;47.080;9.476;2023-06-04T00:42:37;17.00;99.90
42479;DHT22;28110;47.080;9.476;2023-06-04T00:45:03;16.90;99.90
42479;DHT22;28110;47.080;9.476;2023-06-04T00:47:31;16.80;99.90
42479;DHT22;28110;47.080;9.476;2023-06-04T00:49:57;16.80;99.90
42479;DHT22;28110;47.080;9.476;2023-06-04T00:52:24;16.70;99.90
42479;DHT22;28110;47.080;9.476;2023-06-04T00:54:51;16.70;99.90
42479;DHT22;28110;47.080;9.476;2023-06-04T00:57:16;16.60;99.90
42479;DHT22;28110;47.080;9.476;2023-06-04T00:59:42;16.60;99.90
42479;DHT22;28110;47.080;9.476;2023-06-04T01:02:16;16.70;99.90
42479;DHT22;28110;47.080;9.476;2023-06-04T01:04:53;16.70;99.90
42479;DHT22;28110;47.080;9.476;2023-06-04T01:07:21;16.70;99.90
42479;DHT22;28110;47.080;9.476;2023-06-04T01:09:48;16.80;99.90
42479;DHT22;28110;47.080;9.476;2023-06-04T01:12:14;16.80;99.90
42479;DHT22;28110;47.080;9.476;2023-06-04T01:14:41;16.80;99.90
42479;DHT22;28110;47.080;9.476;2023-06-04T01:20:16;16.80;99.90
42479;DHT22;28110;47.080;9.476;2023-06-04T01:25:37;16.70;99.90
42479;DHT22;28110;47.080;9.476;2023-06-04T01:28:11;16.60;99.90
42479;DHT22;28110;47.080;9.476;2023-06-04T01:30:39;16.60;99.90
42479;DHT22;28110;47.080;9.476;2023-06-04T01:33:11;16.60;99.90
42479;DHT22;28110;47.080;9.476;2023-06-04T01:35:37;16.60;99.90
42479;DHT22;28110;47.080;9.476;2023-06-04T01:38:03;16.60;99.90
42479;DHT22;28110;47.080;9.476;2023-06-04T01:40:28;16.60;99.90
42479;DHT22;28110;47.080;9.476;2023-06-04T01:42:54;16.50;99.90
42479;DHT22;28110;47.080;9.476;2023-06-04T01:45:22;16.50;99.90
42479;DHT22;28110;47.080;9.476;2023-06-04T01:47:47;16.40;99.90
42479;DHT22;28110;47.080;9.476;2023-06-04T01:50:13;16.40;99.90
42479;DHT22;28110;47.080;9.476;2023-06-04T01:52:39;16.30;99.90
42479;DHT22;28110;47.080;9.476;2023-06-04T01:55:09;16.30;99.90
42479;DHT22;28110;47.080;9.476;2023-06-04T01:57:37;16.20;99.90
42479;DHT22;28110;47.080;9.476;2023-06-04T02:00:04;16.20;99.90
42479;DHT22;28110;47.080;9.476;2023-06-04T02:02:33;16.10;99.90
42479;DHT22;28110;47.080;9.476;2023-06-04T02:04:58;16.10;99.90
42479;DHT22;28110;47.080;9.476;2023-06-04T02:07:24;16.00;99.90
42479;DHT22;28110;47.080;9.476;2023-06-04T02:09:51;15.90;99.90
42479;DHT22;28110;47.080;9.476;2023-06-04T02:12:16;15.80;99.90
42479;DHT22;28110;47.080;9.476;2023-06-04T02:14:42;15.70;99.90
42479;DHT22;28110;47.080;9.476;2023-06-04T02:17:10;15.60;99.90
42479;DHT22;28110;47.080;9.476;2023-06-04T02:19:39;15.60;99.90
42479;DHT22;28110;47.080;9.476;2023-06-04T02:22:05;15.50;99.90
42479;DHT22;28110;47.080;9.476;2023-06-04T02:24:31;15.50;99.90
42479;DHT22;28110;47.080;9.476;2023-06-04T02:26:56;15.50;99.90
42479;DHT22;28110;47.080;9.476;2023-06-04T02:29:22;15.50;99.90
42479;DHT22;28110;47.080;9.476;2023-06-04T02:31:47;15.50;99.90
42479;DHT22;28110;47.080;9.476;2023-06-04T02:34:13;15.50;99.90
42479;DHT22;28110;47.080;9.476;2023-06-04T02:36:38;15.50;99.90
42479;DHT22;28110;47.080;9.476;2023-06-04T02:39:04;15.40;99.90
42479;DHT22;28110;47.080;9.476;2023-06-04T02:41:29;15.40;99.90
42479;DHT22;28110;47.080;9.476;2023-06-04T02:43:55;15.20;99.90
42479;DHT22;28110;47.080;9.476;2023-06-04T02:46:20;15.20;99.90
42479;DHT22;28110;47.080;9.476;2023-06-04T02:48:46;15.10;99.90
42479;DHT22;28110;47.080;9.476;2023-06-04T02:51:11;15.10;99.90
42479;DHT22;28110;47.080;9.476;2023-06-04T02:53:37;15.10;99.90
42479;DHT22;28110;47.080;9.476;2023-06-04T02:56:03;15.00;99.90
42479;DHT22;28110;47.080;9.476;2023-06-04T02:58:28;15.10;99.90
42479;DHT22;28110;47.080;9.476;2023-06-04T03:00:54;15.10;99.90
42479;DHT22;28110;47.080;9.476;2023-06-04T03:03:20;15.00;99.90
42479;DHT22;28110;47.080;9.476;2023-06-04T03:05:46;15.10;99.90
42479;DHT22;28110;47.080;9.476;2023-06-04T03:08:11;15.10;99.90
42479;DHT22;28110;47.080;9.476;2023-06-04T03:10:37;15.10;99.90
42479;DHT22;28110;47.080;9.476;2023-06-04T03:13:03;15.00;99.90
42479;DHT22;28110;47.080;9.476;2023-06-04T03:15:29;15.00;99.90
42479;DHT22;28110;47.080;9.476;2023-06-04T03:17:54;15.00;99.90
42479;DHT22;28110;47.080;9.476;2023-06-04T03:20:20;15.00;99.90
42479;DHT22;28110;47.080;9.476;2023-06-04T03:22:50;15.00;99.90
42479;DHT22;28110;47.080;9.476;2023-06-04T03:25:15;15.00;99.90
42479;DHT22;28110;47.080;9.476;2023-06-04T03:27:41;14.90;99.90
42479;DHT22;28110;47.080;9.476;2023-06-04T03:30:07;14.80;99.90
42479;DHT22;28110;47.080;9.476;2023-06-04T03:32:33;14.90;99.90
42479;DHT22;28110;47.080;9.476;2023-06-04T03:34:59;14.80;99.90
42479;DHT22;28110;47.080;9.476;2023-06-04T03:37:24;14.80;99.90
42479;DHT22;28110;47.080;9.476;2023-06-04T03:39:51;14.90;99.90
42479;DHT22;28110;47.080;9.476;2023-06-04T03:42:16;14.80;99.90
42479;DHT22;28110;47.080;9.476;2023-06-04T03:44:42;14.80;99.90
42479;DHT22;28110;47.080;9.476;2023-06-04T03:47:07;14.80;99.90
42479;DHT22;28110;47.080;9.476;2023-06-04T03:49:33;14.80;99.90
42479;DHT22;28110;47.080;9.476;2023-06-04T03:51:58;14.70;99.90
42479;DHT22;28110;47.080;9.476;2023-06-04T03:54:24;14.80;99.90
42479;DHT22;28110;47.080;9.476;2023-06-04T03:56:49;14.70;99.90
42479;DHT22;28110;47.080;9.476;2023-06-04T03:59:15;14.70;99.90
42479;DHT22;28110;47.080;9.476;2023-06-04T04:01:42;14.70;99.90
42479;DHT22;28110;47.080;9.476;2023-06-04T04:04:07;14.60;99.90
42479;DHT22;28110;47.080;9.476;2023-06-04T04:06:33;14.60;99.90
42479;DHT22;28110;47.080;9.476;2023-06-04T04:08:58;14.70;99.90
42479;DHT22;28110;47.080;9.476;2023-06-04T04:11:24;14.70;99.90
42479;DHT22;28110;47.080;9.476;2023-06-04T04:13:51;14.80;99.90
42479;DHT22;28110;47.080;9.476;2023-06-04T04:16:16;14.80;99.90
42479;DHT22;28110;47.080;9.476;2023-06-04T04:18:42;14.80;99.90
42479;DHT22;28110;47.080;9.476;2023-06-04T04:21:09;14.90;99.90
42479;DHT22;28110;47.080;9.476;2023-06-04T04:23:37;14.90;99.90
42479;DHT22;28110;47.080;9.476;2023-06-04T04:26:03;14.80;99.90
42479;DHT22;28110;47.080;9.476;2023-06-04T04:28:29;14.90;99.90
42479;DHT22;28110;47.080;9.476;2023-06-04T04:30:55;14.90;99.90
42479;DHT22;28110;47.080;9.476;2023-06-04T04:33:28;14.90;99.90
42479;DHT22;28110;47.080;9.476;2023-06-04T04:35:58;15.00;99.90
42479;DHT22;28110;47.080;9.476;2023-06-04T04:38:25;15.00;99.90
42479;DHT22;28110;47.080;9.476;2023-06-04T04:40:50;15.10;99.90
42479;DHT22;28110;47.080;9.476;2023-06-04T04:43:30;15.10;99.90
42479;DHT22;28110;47.080;9.476;2023-06-04T04:45:56;15.30;99.90
42479;DHT22;28110;47.080;9.476;2023-06-04T04:48:21;15.30;99.90
42479;DHT22;28110;47.080;9.476;2023-06-04T04:50:47;15.40;99.90
42479;DHT22;28110;47.080;9.476;2023-06-04T04:53:12;15.40;99.90
42479;DHT22;28110;47.080;9.476;2023-06-04T04:55:38;15.40;99.90
42479;DHT22;28110;47.080;9.476;2023-06-04T04:58:03;15.30;99.90
42479;DHT22;28110;47.080;9.476;2023-06-04T05:00:29;15.30;99.90
42479;DHT22;28110;47.080;9.476;2023-06-04T05:02:55;15.40;99.90
42479;DHT22;28110;47.080;9.476;2023-06-04T05:05:21;15.40;99.90
42479;DHT22;28110;47.080;9.476;2023-06-04T05:07:47;15.50;99.90
42479;DHT22;28110;47.080;9.476;2023-06-04T05:10:12;15.70;99.90
42479;DHT22;28110;47.080;9.476;2023-06-04T05:12:38;15.90;99.90
42479;DHT22;28110;47.080;9.476;2023-06-04T05:15:04;16.00;99.90
42479;DHT22;28110;47.080;9.476;2023-06-04T05:17:29;16.10;99.90
42479;DHT22;28110;47.080;9.476;2023-06-04T05:19:56;16.20;99.90
42479;DHT22;28110;47.080;9.476;2023-06-04T05:22:37;16.10;99.90
42479;DHT22;28110;47.080;9.476;2023-06-04T05:25:03;16.20;99.90
42479;DHT22;28110;47.080;9.476;2023-06-04T05:27:28;16.20;99.90
42479;DHT22;28110;47.080;9.476;2023-06-04T05:29:54;16.20;99.90
42479;DHT22;28110;47.080;9.476;2023-06-04T05:32:20;16.30;99.90
42479;DHT22;28110;47.080;9.476;2023-06-04T05:34:48;16.40;99.90
42479;DHT22;28110;47.080;9.476;2023-06-04T05:37:13;16.70;99.90
42479;DHT22;28110;47.080;9.476;2023-06-04T05:39:42;17.00;99.90
42479;DHT22;28110;47.080;9.476;2023-06-04T05:42:08;17.30;99.90
42479;DHT22;28110;47.080;9.476;2023-06-04T05:44:33;17.60;99.90
42479;DHT22;28110;47.080;9.476;2023-06-04T05:46:59;17.80;99.90
42479;DHT22;28110;47.080;9.476;2023-06-04T05:49:24;17.90;99.90
42479;DHT22;28110;47.080;9.476;2023-06-04T05:51:50;18.00;99.90
42479;DHT22;28110;47.080;9.476;2023-06-04T05:54:16;18.20;99.90
42479;DHT22;28110;47.080;9.476;2023-06-04T05:56:41;18.40;99.90
42479;DHT22;28110;47.080;9.476;2023-06-04T05:59:07;18.70;99.90
42479;DHT22;28110;47.080;9.476;2023-06-04T06:01:32;19.00;99.90
42479;DHT22;28110;47.080;9.476;2023-06-04T06:03:58;19.20;99.90
42479;DHT22;28110;47.080;9.476;2023-06-04T06:06:23;19.30;99.90
42479;DHT22;28110;47.080;9.476;2023-06-04T06:08:49;19.40;99.90
42479;DHT22;28110;47.080;9.476;2023-06-04T06:11:15;19.50;99.90
42479;DHT22;28110;47.080;9.476;2023-06-04T06:13:41;19.60;99.90
42479;DHT22;28110;47.080;9.476;2023-06-04T06:16:06;19.80;99.90
42479;DHT22;28110;47.080;9.476;2023-06-04T06:18:32;20.00;99.90
42479;DHT22;28110;47.080;9.476;2023-06-04T06:20:58;20.30;99.90
42479;DHT22;28110;47.080;9.476;2023-06-04T06:23:23;20.50;99.90
42479;DHT22;28110;47.080;9.476;2023-06-04T06:25:49;20.80;99.90
42479;DHT22;28110;47.080;9.476;2023-06-04T06:28:17;20.70;99.90
42479;DHT22;28110;47.080;9.476;2023-06-04T06:30:43;20.90;99.90
42479;DHT22;28110;47.080;9.476;2023-06-04T06:33:10;21.00;99.90
42479;DHT22;28110;47.080;9.476;2023-06-04T06:35:35;21.20;99.90
42479;DHT22;28110;47.080;9.476;2023-06-04T06:38:01;21.30;99.90
42479;DHT22;28110;47.080;9.476;2023-06-04T06:40:27;21.50;99.90
42479;DHT22;28110;47.080;9.476;2023-06-04T06:42:52;21.70;99.90
42479;DHT22;28110;47.080;9.476;2023-06-04T06:45:18;21.80;99.90
42479;DHT22;28110;47.080;9.476;2023-06-04T06:47:44;21.90;99.90
42479;DHT22;28110;47.080;9.476;2023-06-04T06:50:10;22.00;99.90
42479;DHT22;28110;47.080;9.476;2023-06-04T06:52:36;22.10;99.90
42479;DHT22;28110;47.080;9.476;2023-06-04T06:55:04;22.10;99.90
42479;DHT22;28110;47.080;9.476;2023-06-04T06:57:29;22.00;99.90
42479;DHT22;28110;47.080;9.476;2023-06-04T06:59:55;21.90;99.90
42479;DHT22;28110;47.080;9.476;2023-06-04T07:02:21;21.90;99.90
42479;DHT22;28110;47.080;9.476;2023-06-04T07:04:47;22.10;99.90
42479;DHT22;28110;47.080;9.476;2023-06-04T07:07:13;22.10;99.90
42479;DHT22;28110;47.080;9.476;2023-06-04T07:09:38;22.10;99.90
42479;DHT22;28110;47.080;9.476;2023-06-04T07:12:05;21.90;99.90
42479;DHT22;28110;47.080;9.476;2023-06-04T07:14:31;21.80;99.90
42479;DHT22;28110;47.080;9.476;2023-06-04T07:16:56;21.70;99.90
42479;DHT22;28110;47.080;9.476;2023-06-04T07:19:22;21.80;99.90
42479;DHT22;28110;47.080;9.476;2023-06-04T07:21:47;21.90;99.90
42479;DHT22;28110;47.080;9.476;2023-06-04T07:24:13;21.90;99.90
42479;DHT22;28110;47.080;9.476;2023-06-04T07:26:38;21.90;99.90
42479;DHT22;28110;47.080;9.476;2023-06-04T07:29:04;22.00;99.90
42479;DHT22;28110;47.080;9.476;2023-06-04T07:31:29;22.10;99.90
42479;DHT22;28110;47.080;9.476;2023-06-04T07:33:55;22.10;99.90
42479;DHT22;28110;47.080;9.476;2023-06-04T07:36:21;22.00;99.90
42479;DHT22;28110;47.080;9.476;2023-06-04T07:38:48;21.70;99.90
42479;DHT22;28110;47.080;9.476;2023-06-04T07:41:13;21.70;99.90
42479;DHT22;28110;47.080;9.476;2023-06-04T07:43:39;21.60;99.90
42479;DHT22;28110;47.080;9.476;2023-06-04T07:46:05;21.50;99.90
42479;DHT22;28110;47.080;9.476;2023-06-04T07:48:30;21.60;99.90
42479;DHT22;28110;47.080;9.476;2023-06-04T07:51:01;21.80;99.90
42479;DHT22;28110;47.080;9.476;2023-06-04T07:53:27;21.90;99.90
42479;DHT22;28110;47.080;9.476;2023-06-04T07:55:53;22.00;99.90
42479;DHT22;28110;47.080;9.476;2023-06-04T07:58:19;21.90;99.90
42479;DHT22;28110;47.080;9.476;2023-06-04T08:00:44;21.80;99.90
42479;DHT22;28110;47.080;9.476;2023-06-04T08:03:10;21.80;99.90
42479;DHT22;28110;47.080;9.476;2023-06-04T08:05:36;21.70;99.90
42479;DHT22;28110;47.080;9.476;2023-06-04T08:08:02;21.70;99.90
42479;DHT22;28110;47.080;9.476;2023-06-04T08:10:29;21.80;99.90
42479;DHT22;28110;47.080;9.476;2023-06-04T08:12:55;21.90;99.90
42479;DHT22;28110;47.080;9.476;2023-06-04T08:15:21;22.00;99.90
42479;DHT22;28110;47.080;9.476;2023-06-04T08:17:46;22.10;99.90
42479;DHT22;28110;47.080;9.476;2023-06-04T08:20:12;22.30;99.90
42479;DHT22;28110;47.080;9.476;2023-06-04T08:22:37;22.40;99.90
42479;DHT22;28110;47.080;9.476;2023-06-04T08:25:03;22.60;99.90
42479;DHT22;28110;47.080;9.476;2023-06-04T08:27:30;22.70;99.90
42479;DHT22;28110;47.080;9.476;2023-06-04T08:29:56;22.70;99.90
42479;DHT22;28110;47.080;9.476;2023-06-04T08:32:23;22.40;99.90
42479;DHT22;28110;47.080;9.476;2023-06-04T08:34:48;22.30;99.90
42479;DHT22;28110;47.080;9.476;2023-06-04T08:37:14;22.30;99.90
42479;DHT22;28110;47.080;9.476;2023-06-04T08:39:40;22.30;99.90
42479;DHT22;28110;47.080;9.476;2023-06-04T08:42:15;22.30;99.90
42479;DHT22;28110;47.080;9.476;2023-06-04T08:44:46;22.30;99.90
42479;DHT22;28110;47.080;9.476;2023-06-04T08:47:13;22.40;99.90
42479;DHT22;28110;47.080;9.476;2023-06-04T08:49:40;22.60;99.90
42479;DHT22;28110;47.080;9.476;2023-06-04T08:52:06;22.70;99.90
42479;DHT22;28110;47.080;9.476;2023-06-04T08:54:33;22.70;99.90
42479;DHT22;28110;47.080;9.476;2023-06-04T08:56:58;22.80;99.90
42479;DHT22;28110;47.080;9.476;2023-06-04T08:59:25;22.90;99.90
42479;DHT22;28110;47.080;9.476;2023-06-04T09:01:53;22.80;99.90
42479;DHT22;28110;47.080;9.476;2023-06-04T09:04:19;23.00;99.90
42479;DHT22;28110;47.080;9.476;2023-06-04T09:06:45;23.20;99.90
42479;DHT22;28110;47.080;9.476;2023-06-04T09:09:12;23.10;99.90
42479;DHT22;28110;47.080;9.476;2023-06-04T09:11:52;23.10;99.90
42479;DHT22;28110;47.080;9.476;2023-06-04T09:14:18;23.10;99.90
42479;DHT22;28110;47.080;9.476;2023-06-04T09:16:49;23.00;99.90
42479;DHT22;28110;47.080;9.476;2023-06-04T09:19:16;22.70;99.90
42479;DHT22;28110;47.080;9.476;2023-06-04T09:21:54;22.80;99.90
42479;DHT22;28110;47.080;9.476;2023-06-04T09:24:22;22.90;99.90
42479;DHT22;28110;47.080;9.476;2023-06-04T09:26:48;23.00;99.90
42479;DHT22;28110;47.080;9.476;2023-06-04T09:29:15;23.20;99.90
42479;DHT22;28110;47.080;9.476;2023-06-04T09:31:41;23.20;99.90
42479;DHT22;28110;47.080;9.476;2023-06-04T09:34:09;23.40;99.90
42479;DHT22;28110;47.080;9.476;2023-06-04T09:36:36;23.40;99.90
42479;DHT22;28110;47.080;9.476;2023-06-04T09:39:03;23.50;99.90
42479;DHT22;28110;47.080;9.476;2023-06-04T09:41:29;23.50;99.90
42479;DHT22;28110;47.080;9.476;2023-06-04T09:44:04;23.60;99.90
42479;DHT22;28110;47.080;9.476;2023-06-04T09:46:31;23.50;99.90
42479;DHT22;28110;47.080;9.476;2023-06-04T09:49:01;23.70;99.90
42479;DHT22;28110;47.080;9.476;2023-06-04T09:51:27;23.70;99.90
42479;DHT22;28110;47.080;9.476;2023-06-04T09:53:54;23.70;99.90
42479;DHT22;28110;47.080;9.476;2023-06-04T09:56:21;23.60;99.90
42479;DHT22;28110;47.080;9.476;2023-06-04T09:58:49;23.60;99.90
42479;DHT22;28110;47.080;9.476;2023-06-04T10:01:15;23.40;99.40
42479;DHT22;28110;47.080;9.476;2023-06-04T10:03:46;23.20;98.40
42479;DHT22;28110;47.080;9.476;2023-06-04T10:06:14;23.10;98.20
42479;DHT22;28110;47.080;9.476;2023-06-04T10:08:42;23.00;99.60
42479;DHT22;28110;47.080;9.476;2023-06-04T10:11:09;22.80;98.40
42479;DHT22;28110;47.080;9.476;2023-06-04T10:13:45;22.70;99.30
42479;DHT22;28110;47.080;9.476;2023-06-04T10:16:13;22.50;98.90
42479;DHT22;28110;47.080;9.476;2023-06-04T10:18:39;22.40;98.90
42479;DHT22;28110;47.080;9.476;2023-06-04T10:21:06;22.30;97.90
42479;DHT22;28110;47.080;9.476;2023-06-04T10:23:33;22.30;99.00
42479;DHT22;28110;47.080;9.476;2023-06-04T10:25:59;22.20;98.90
42479;DHT22;28110;47.080;9.476;2023-06-04T10:28:25;22.20;99.90
42479;DHT22;28110;47.080;9.476;2023-06-04T10:30:51;22.20;99.90
42479;DHT22;28110;47.080;9.476;2023-06-04T10:33:18;22.10;99.40
42479;DHT22;28110;47.080;9.476;2023-06-04T10:35:45;22.20;99.90
42479;DHT22;28110;47.080;9.476;2023-06-04T10:38:13;22.30;99.90
42479;DHT22;28110;47.080;9.476;2023-06-04T10:40:39;22.30;99.40
42479;DHT22;28110;47.080;9.476;2023-06-04T10:43:06;22.30;99.90
42479;DHT22;28110;47.080;9.476;2023-06-04T10:45:32;22.40;99.40
42479;DHT22;28110;47.080;9.476;2023-06-04T10:48:05;22.50;99.90
42479;DHT22;28110;47.080;9.476;2023-06-04T10:50:32;22.60;99.90
42479;DHT22;28110;47.080;9.476;2023-06-04T10:52:59;22.70;99.90
42479;DHT22;28110;47.080;9.476;2023-06-04T10:55:29;22.80;99.90
42479;DHT22;28110;47.080;9.476;2023-06-04T10:57:55;22.90;99.90
42479;DHT22;28110;47.080;9.476;2023-06-04T11:00:22;22.90;99.90
42479;DHT22;28110;47.080;9.476;2023-06-04T11:02:54;23.00;99.90
42479;DHT22;28110;47.080;9.476;2023-06-04T11:05:20;23.10;99.90
42479;DHT22;28110;47.080;9.476;2023-06-04T11:07:48;23.10;99.90
42479;DHT22;28110;47.080;9.476;2023-06-04T11:10:16;23.20;99.90
42479;DHT22;28110;47.080;9.476;2023-06-04T11:12:49;23.20;99.90
42479;DHT22;28110;47.080;9.476;2023-06-04T11:15:18;23.20;99.90
42479;DHT22;28110;47.080;9.476;2023-06-04T11:17:54;23.20;99.90
42479;DHT22;28110;47.080;9.476;2023-06-04T11:20:22;23.10;99.90
42479;DHT22;28110;47.080;9.476;2023-06-04T11:22:58;23.10;99.90
42479;DHT22;28110;47.080;9.476;2023-06-04T11:25:25;23.00;99.90
42479;DHT22;28110;47.080;9.476;2023-06-04T11:27:53;22.90;99.90
42479;DHT22;28110;47.080;9.476;2023-06-04T11:30:19;22.80;99.90
42479;DHT22;28110;47.080;9.476;2023-06-04T11:32:46;22.90;99.90
42479;DHT22;28110;47.080;9.476;2023-06-04T11:35:11;22.70;99.90
42479;DHT22;28110;47.080;9.476;2023-06-04T11:37:37;22.70;99.90
42479;DHT22;28110;47.080;9.476;2023-06-04T11:40:15;22.60;99.90
42479;DHT22;28110;47.080;9.476;2023-06-04T11:42:41;22.60;99.90
42479;DHT22;28110;47.080;9.476;2023-06-04T11:45:10;22.60;99.90
42479;DHT22;28110;47.080;9.476;2023-06-04T11:47:36;22.50;99.90
42479;DHT22;28110;47.080;9.476;2023-06-04T11:50:01;22.40;99.90
42479;DHT22;28110;47.080;9.476;2023-06-04T11:52:27;22.50;99.90
42479;DHT22;28110;47.080;9.476;2023-06-04T11:54:53;22.50;99.90
42479;DHT22;28110;47.080;9.476;2023-06-04T11:57:19;22.40;99.90
42479;DHT22;28110;47.080;9.476;2023-06-04T11:59:45;22.40;99.90
42479;DHT22;28110;47.080;9.476;2023-06-04T12:02:10;22.40;99.90
42479;DHT22;28110;47.080;9.476;2023-06-04T12:04:36;22.40;99.90
42479;DHT22;28110;47.080;9.476;2023-06-04T12:07:03;22.50;99.90
42479;DHT22;28110;47.080;9.476;2023-06-04T12:09:32;22.50;99.90
42479;DHT22;28110;47.080;9.476;2023-06-04T12:12:01;22.30;99.90
42479;DHT22;28110;47.080;9.476;2023-06-04T12:14:27;22.30;99.90
42479;DHT22;28110;47.080;9.476;2023-06-04T12:17:06;22.30;99.90
42479;DHT22;28110;47.080;9.476;2023-06-04T12:19:32;22.30;99.90
42479;DHT22;28110;47.080;9.476;2023-06-04T12:22:04;22.30;99.90
42479;DHT22;28110;47.080;9.476;2023-06-04T12:24:31;22.40;99.30
42479;DHT22;28110;47.080;9.476;2023-06-04T12:27:15;22.40;99.80
42479;DHT22;28110;47.080;9.476;2023-06-04T12:29:41;22.30;99.60
42479;DHT22;28110;47.080;9.476;2023-06-04T12:32:08;22.30;99.70
42479;DHT22;28110;47.080;9.476;2023-06-04T12:34:37;22.30;99.90
42479;DHT22;28110;47.080;9.476;2023-06-04T12:37:03;22.20;99.90
42479;DHT22;28110;47.080;9.476;2023-06-04T12:39:34;22.10;99.90
42479;DHT22;28110;47.080;9.476;2023-06-04T12:41:59;22.10;99.90
42479;DHT22;28110;47.080;9.476;2023-06-04T12:44:25;22.00;99.90
42479;DHT22;28110;47.080;9.476;2023-06-04T12:46:51;22.00;99.90
42479;DHT22;28110;47.080;9.476;2023-06-04T12:49:16;22.10;99.90
42479;DHT22;28110;47.080;9.476;2023-06-04T12:51:42;22.30;99.90
42479;DHT22;28110;47.080;9.476;2023-06-04T12:54:09;22.40;99.90
42479;DHT22;28110;47.080;9.476;2023-06-04T12:56:35;22.30;99.90
42479;DHT22;28110;47.080;9.476;2023-06-04T12:59:00;22.50;99.90
42479;DHT22;28110;47.080;9.476;2023-06-04T13:01:26;22.40;99.90
42479;DHT22;28110;47.080;9.476;2023-06-04T13:03:51;22.40;99.90
42479;DHT22;28110;47.080;9.476;2023-06-04T13:06:17;22.40;99.90
42479;DHT22;28110;47.080;9.476;2023-06-04T13:08:43;22.50;99.90
42479;DHT22;28110;47.080;9.476;2023-06-04T13:11:08;22.50;99.90
42479;DHT22;28110;47.080;9.476;2023-06-04T13:13:35;22.50;99.90
42479;DHT22;28110;47.080;9.476;2023-06-04T13:16:01;22.50;99.80
42479;DHT22;28110;47.080;9.476;2023-06-04T13:18:27;22.50;99.90
42479;DHT22;28110;47.080;9.476;2023-06-04T13:20:52;22.50;99.90
42479;DHT22;28110;47.080;9.476;2023-06-04T13:23:18;22.50;99.70
42479;DHT22;28110;47.080;9.476;2023-06-04T13:25:43;22.60;97.80
42479;DHT22;28110;47.080;9.476;2023-06-04T13:28:09;22.50;97.50
42479;DHT22;28110;47.080;9.476;2023-06-04T13:30:35;22.40;96.90
42479;DHT22;28110;47.080;9.476;2023-06-04T13:33:02;22.40;96.70
42479;DHT22;28110;47.080;9.476;2023-06-04T13:35:27;22.60;97.20
42479;DHT22;28110;47.080;9.476;2023-06-04T13:37:53;22.70;97.70
42479;DHT22;28110;47.080;9.476;2023-06-04T13:40:19;22.90;97.50
42479;DHT22;28110;47.080;9.476;2023-06-04T13:42:45;23.10;98.20
42479;DHT22;28110;47.080;9.476;2023-06-04T13:45:11;23.10;99.20
42479;DHT22;28110;47.080;9.476;2023-06-04T13:47:36;23.00;96.80
42479;DHT22;28110;47.080;9.476;2023-06-04T13:50:02;23.00;96.80
42479;DHT22;28110;47.080;9.476;2023-06-04T13:52:29;23.10;97.00
42479;DHT22;28110;47.080;9.476;2023-06-04T13:54:54;23.30;96.40
42479;DHT22;28110;47.080;9.476;2023-06-04T13:57:21;23.40;96.40
42479;DHT22;28110;47.080;9.476;2023-06-04T13:59:46;23.50;96.70
42479;DHT22;28110;47.080;9.476;2023-06-04T14:02:12;23.50;96.00
42479;DHT22;28110;47.080;9.476;2023-06-04T14:04:37;23.50;96.40
42479;DHT22;28110;47.080;9.476;2023-06-04T14:07:03;23.30;94.90
42479;DHT22;28110;47.080;9.476;2023-06-04T14:09:29;23.20;95.50
42479;DHT22;28110;47.080;9.476;2023-06-04T14:11:54;23.10;96.30
42479;DHT22;28110;47.080;9.476;2023-06-04T14:14:20;23.10;96.30
42479;DHT22;28110;47.080;9.476;2023-06-04T14:16:47;23.00;96.60
42479;DHT22;28110;47.080;9.476;2023-06-04T14:19:13;23.00;96.50
42479;DHT22;28110;47.080;9.476;2023-06-04T14:21:41;23.10;97.00
42479;DHT22;28110;47.080;9.476;2023-06-04T14:24:06;23.20;96.80
42479;DHT22;28110;47.080;9.476;2023-06-04T14:26:32;23.20;97.20
42479;DHT22;28110;47.080;9.476;2023-06-04T14:28:59;23.30;97.50
42479;DHT22;28110;47.080;9.476;2023-06-04T14:31:24;23.40;96.90
42479;DHT22;28110;47.080;9.476;2023-06-04T14:33:50;23.20;97.00
42479;DHT22;28110;47.080;9.476;2023-06-04T14:36:15;23.00;96.40
42479;DHT22;28110;47.080;9.476;2023-06-04T14:38:41;23.00;97.00
42479;DHT22;28110;47.080;9.476;2023-06-04T14:41:07;22.90;96.80
42479;DHT22;28110;47.080;9.476;2023-06-04T14:43:32;22.80;96.60
42479;DHT22;28110;47.080;9.476;2023-06-04T14:45:58;22.80;97.20
42479;DHT22;28110;47.080;9.476;2023-06-04T14:48:24;22.70;96.90
42479;DHT22;28110;47.080;9.476;2023-06-04T14:50:49;22.70;97.60
42479;DHT22;28110;47.080;9.476;2023-06-04T14:53:19;22.60;97.20
42479;DHT22;28110;47.080;9.476;2023-06-04T14:55:45;22.50;97.40
42479;DHT22;28110;47.080;9.476;2023-06-04T14:58:11;22.50;97.50
42479;DHT22;28110;47.080;9.476;2023-06-04T15:00:37;22.50;97.50
42479;DHT22;28110;47.080;9.476;2023-06-04T15:03:04;22.30;97.80
42479;DHT22;28110;47.080;9.476;2023-06-04T15:05:30;22.30;97.60
42479;DHT22;28110;47.080;9.476;2023-06-04T15:07:56;22.30;97.80
42479;DHT22;28110;47.080;9.476;2023-06-04T15:10:22;22.30;97.00
42479;DHT22;28110;47.080;9.476;2023-06-04T15:12:47;22.30;97.60
42479;DHT22;28110;47.080;9.476;2023-06-04T15:15:13;22.30;97.80
42479;DHT22;28110;47.080;9.476;2023-06-04T15:17:38;22.40;98.20
42479;DHT22;28110;47.080;9.476;2023-06-04T15:20:04;22.40;97.50
42479;DHT22;28110;47.080;9.476;2023-06-04T15:22:30;22.50;97.60
42479;DHT22;28110;47.080;9.476;2023-06-04T15:24:56;22.60;98.10
42479;DHT22;28110;47.080;9.476;2023-06-04T15:27:22;22.70;97.90
42479;DHT22;28110;47.080;9.476;2023-06-04T15:29:47;22.80;98.10
42479;DHT22;28110;47.080;9.476;2023-06-04T15:32:13;22.90;98.00